createdAt,value
2022-08-26T00:04:40.059Z,15.50
2022-08-26T00:09:47.361Z,22.93
2022-08-26T00:14:50.472Z,26.90
2022-08-26T00:19:53.839Z,32.37
2022-08-26T00:24:58.155Z,32.00
2022-08-26T00:30:01.626Z,34.27
2022-08-26T00:35:05.116Z,32.33
2022-08-26T00:40:14.275Z,34.87
2022-08-26T00:45:20.043Z,41.37
2022-08-26T00:50:30.502Z,41.70
2022-08-26T00:55:40.309Z,45.33
2022-08-26T01:00:43.011Z,44.70
2022-08-26T01:05:47.975Z,46.00
2022-08-26T01:10:55.742Z,46.33
2022-08-26T01:16:03.575Z,38.57
2022-08-26T01:21:13.312Z,43.63
2022-08-26T01:26:22.331Z,44.10
2022-08-26T01:31:30.804Z,42.30
2022-08-26T01:36:34.184Z,49.30
2022-08-26T01:41:44.144Z,41.03
2022-08-26T01:46:49.801Z,39.80
2022-08-26T01:51:56.006Z,42.13
2022-08-26T01:57:00.823Z,42.87
2022-08-26T02:02:04.857Z,39.00
2022-08-26T02:07:09.824Z,42.13
2022-08-26T02:12:17.612Z,35.43
2022-08-26T02:17:25.973Z,41.67
2022-08-26T02:22:29.587Z,35.53
2022-08-26T02:27:35.776Z,33.07
2022-08-26T02:32:40.175Z,38.17
2022-08-26T02:37:44.705Z,32.13
2022-08-26T02:42:48.809Z,30.57
2022-08-26T02:47:52.904Z,32.90
2022-08-26T02:52:56.231Z,26.33
2022-08-26T02:58:01.157Z,26.90
2022-08-26T03:03:04.205Z,23.73
2022-08-26T03:08:06.950Z,34.63
2022-08-26T03:13:10.980Z,28.03
2022-08-26T03:18:13.762Z,30.37
2022-08-26T03:23:16.380Z,24.53
2022-08-26T03:28:22.587Z,23.93
2022-08-26T03:33:28.375Z,22.80
2022-08-26T03:38:33.125Z,23.13
2022-08-26T03:43:40.215Z,27.13
2022-08-26T03:48:45.744Z,27.20
2022-08-26T03:53:48.645Z,27.10
2022-08-26T03:58:54.142Z,23.97
2022-08-26T04:04:03.192Z,22.83
2022-08-26T04:09:09.267Z,23.53
2022-08-26T04:14:17.590Z,28.90
2022-08-26T04:19:23.876Z,24.63
2022-08-26T04:24:28.301Z,24.67
2022-08-26T04:29:32.531Z,24.40
2022-08-26T04:34:39.628Z,28.13
2022-08-26T04:39:42.378Z,25.17
2022-08-26T04:44:51.792Z,23.73
2022-08-26T04:49:56.523Z,23.83
2022-08-26T04:55:00.614Z,26.13
2022-08-26T05:00:06.420Z,24.43
2022-08-26T05:05:09.950Z,14.97
2022-08-26T05:10:14.243Z,21.47
2022-08-26T05:15:19.640Z,18.03
2022-08-26T05:20:25.732Z,24.20
2022-08-26T05:25:28.986Z,17.80
2022-08-26T05:30:34.277Z,21.53
2022-08-26T05:35:40.713Z,17.87
2022-08-26T05:40:46.405Z,17.90
2022-08-26T05:45:51.843Z,22.50
2022-08-26T05:50:55.082Z,14.53
2022-08-26T05:55:58.133Z,16.13
2022-08-26T06:01:04.706Z,20.87
2022-08-26T06:06:09.657Z,13.17
2022-08-26T06:11:18.600Z,19.43
2022-08-26T06:16:24.737Z,18.23
2022-08-26T06:21:32.290Z,19.90
2022-08-26T06:26:36.683Z,21.80
2022-08-26T06:31:43.169Z,16.77
2022-08-26T06:36:47.295Z,12.87
2022-08-26T06:41:54.292Z,24.47
2022-08-26T06:47:02.419Z,12.70
2022-08-26T06:52:05.544Z,19.50
2022-08-26T06:57:08.723Z,13.07
2022-08-26T07:02:13.410Z,10.93
2022-08-26T07:07:22.843Z,9.03
2022-08-26T07:12:26.385Z,16.57
2022-08-26T07:17:30.817Z,8.33
2022-08-26T07:22:33.904Z,5.67
2022-08-26T07:27:37.947Z,11.67
2022-08-26T07:32:42.281Z,7.90
2022-08-26T07:37:45.528Z,10.03
2022-08-26T07:42:49.116Z,10.20
2022-08-26T07:47:56.128Z,13.47
2022-08-26T07:53:01.828Z,9.40
2022-08-26T07:58:05.496Z,8.60
2022-08-26T08:03:10.618Z,6.77
2022-08-26T08:08:26.825Z,10.10
2022-08-26T08:13:31.879Z,7.27
2022-08-26T08:18:36.098Z,12.97
2022-08-26T08:23:39.581Z,10.93
2022-08-26T08:28:42.437Z,10.93
2022-08-26T08:33:48.521Z,6.30
2022-08-26T08:38:54.350Z,6.60
2022-08-26T08:44:00.211Z,8.93
2022-08-26T08:49:04.397Z,12.30
2022-08-26T08:54:08.736Z,10.80
2022-08-26T08:59:17.176Z,7.67
2022-08-26T09:04:42.731Z,5.43
2022-08-26T09:09:50.656Z,9.10
2022-08-26T09:14:58.193Z,9.50
2022-08-26T09:20:10.961Z,9.50
2022-08-26T09:25:18.069Z,10.63
2022-08-26T09:30:24.783Z,9.70
2022-08-26T09:35:32.105Z,6.80
2022-08-26T09:40:36.423Z,8.20
2022-08-26T09:45:41.386Z,6.97
2022-08-26T09:50:58.763Z,9.80
2022-08-26T09:56:15.502Z,7.00
2022-08-26T10:01:30.199Z,6.90
2022-08-26T10:06:40.057Z,10.50
2022-08-26T10:11:47.909Z,9.57
2022-08-26T10:16:56.301Z,7.20
2022-08-26T10:22:07.469Z,7.13
2022-08-26T10:27:24.636Z,7.33
2022-08-26T10:32:35.091Z,7.10
2022-08-26T10:37:46.440Z,10.30
2022-08-26T10:42:56.064Z,9.53
2022-08-26T10:48:06.144Z,7.47
2022-08-26T10:53:17.527Z,10.03
2022-08-26T10:58:39.299Z,9.50
2022-08-26T11:03:50.291Z,8.50
2022-08-26T11:08:57.733Z,8.00
2022-08-26T11:14:06.869Z,7.23
2022-08-26T11:19:13.251Z,4.73
2022-08-26T11:24:52.711Z,4.00
2022-08-26T11:30:06.800Z,6.67
2022-08-26T11:35:12.445Z,4.57
2022-08-26T11:40:17.858Z,5.03
2022-08-26T11:45:28.510Z,5.23
2022-08-26T11:50:32.412Z,6.90
2022-08-26T11:55:37.432Z,4.80
2022-08-26T12:00:53.192Z,7.23
2022-08-26T12:05:57.179Z,4.03
2022-08-26T12:11:05.174Z,6.53
2022-08-26T12:16:11.401Z,5.20
2022-08-26T12:21:20.243Z,7.10
2022-08-26T12:26:31.014Z,3.67
2022-08-26T12:31:37.928Z,5.20
2022-08-26T12:36:46.664Z,5.83
2022-08-26T12:41:53.767Z,6.00
2022-08-26T12:47:08.136Z,5.13
2022-08-26T12:52:30.763Z,3.83
2022-08-26T12:57:36.054Z,6.90
2022-08-26T13:02:42.422Z,7.10
2022-08-26T13:07:45.624Z,3.90
2022-08-26T13:12:48.394Z,4.30
2022-08-26T13:17:52.896Z,5.80
2022-08-26T13:23:02.793Z,8.20
2022-08-26T13:28:05.426Z,5.23
2022-08-26T13:33:10.046Z,5.47
2022-08-26T13:38:22.308Z,7.13
2022-08-26T13:43:36.991Z,5.83
2022-08-26T13:48:47.013Z,7.43
2022-08-26T13:53:51.017Z,9.00
2022-08-26T13:58:54.701Z,11.77
2022-08-26T14:03:59.017Z,6.47
2022-08-26T14:09:01.745Z,4.80
2022-08-26T14:14:04.469Z,7.17
2022-08-26T14:19:10.848Z,4.53
2022-08-26T14:24:13.613Z,3.83
2022-08-26T14:29:17.032Z,3.80
2022-08-26T14:34:24.552Z,4.13
2022-08-26T14:39:29.567Z,5.27
2022-08-26T14:44:32.821Z,2.80
2022-08-26T14:49:37.300Z,5.30
2022-08-26T14:54:39.993Z,5.73
2022-08-26T14:59:49.624Z,5.97
2022-08-26T15:04:54.571Z,5.80
2022-08-26T15:10:23.643Z,5.20
2022-08-26T15:15:26.797Z,7.70
2022-08-26T15:25:36.275Z,4.60
2022-08-26T15:30:39.677Z,4.80
2022-08-26T15:35:43.960Z,1.97
2022-08-26T15:40:47.253Z,3.77
2022-08-26T15:45:50.522Z,3.17
2022-08-26T15:50:57.012Z,4.37
2022-08-26T15:56:00.818Z,5.43
2022-08-26T16:01:04.453Z,1.80
2022-08-26T16:06:08.804Z,3.13
2022-08-26T16:11:12.790Z,6.33
2022-08-26T16:16:16.042Z,5.73
2022-08-26T16:21:24.575Z,5.63
2022-08-26T16:26:36.343Z,8.40
2022-08-26T16:31:39.723Z,6.33
2022-08-26T16:36:43.967Z,9.63
2022-08-26T16:41:46.676Z,5.93
2022-08-26T16:46:49.923Z,5.30
2022-08-26T16:51:58.544Z,6.53
2022-08-26T16:57:04.225Z,7.43
2022-08-26T17:02:08.447Z,2.67
2022-08-26T17:07:12.555Z,3.77
2022-08-26T17:12:15.865Z,4.93
2022-08-26T17:17:18.876Z,5.47
2022-08-26T17:22:22.923Z,4.33
2022-08-26T17:27:25.838Z,3.20
2022-08-26T17:32:29.047Z,4.63
2022-08-26T17:37:34.630Z,4.13
2022-08-26T17:42:38.113Z,4.07
2022-08-26T17:47:41.211Z,3.23
2022-08-26T17:52:46.662Z,2.60
2022-08-26T17:57:53.819Z,5.60
2022-08-26T18:02:56.984Z,5.70
2022-08-26T18:08:02.162Z,6.17
2022-08-26T18:13:05.451Z,4.87
2022-08-26T18:18:08.203Z,3.20
2022-08-26T18:23:13.256Z,3.97
2022-08-26T18:28:16.002Z,12.10
2022-08-26T18:33:21.497Z,4.57
2022-08-26T18:38:25.722Z,6.77
2022-08-26T18:43:31.319Z,2.93
2022-08-26T18:48:34.467Z,7.87
2022-08-26T18:53:38.535Z,5.93
2022-08-26T18:58:41.453Z,5.10
2022-08-26T19:03:44.387Z,8.87
2022-08-26T19:08:49.776Z,8.40
2022-08-26T19:13:54.153Z,5.43
2022-08-26T19:18:58.276Z,5.70
2022-08-26T19:24:04.731Z,4.30
2022-08-26T19:29:07.669Z,7.43
2022-08-26T19:34:10.837Z,10.20
2022-08-26T19:39:15.682Z,5.80
2022-08-26T19:44:34.915Z,5.20
2022-08-26T19:49:38.411Z,4.50
2022-08-26T19:54:42.482Z,3.53
2022-08-26T19:59:45.839Z,4.43
2022-08-26T20:04:48.607Z,5.40
2022-08-26T20:09:52.723Z,4.70
2022-08-26T20:14:55.918Z,5.50
2022-08-26T20:20:28.504Z,8.10
2022-08-26T20:25:37.903Z,7.30
2022-08-26T20:30:41.081Z,6.07
2022-08-26T20:35:43.950Z,5.60
2022-08-26T20:40:49.123Z,5.23
2022-08-26T20:45:51.780Z,9.77
2022-08-26T20:50:59.118Z,4.77
2022-08-26T20:56:06.396Z,6.40
2022-08-26T21:01:09.824Z,4.53
2022-08-26T21:06:15.207Z,13.80
2022-08-26T21:11:20.477Z,4.70
2022-08-26T21:16:23.162Z,3.47
2022-08-26T21:21:27.347Z,9.20
2022-08-26T21:26:33.896Z,6.20
2022-08-26T21:31:45.416Z,12.67
2022-08-26T21:36:58.576Z,5.33
2022-08-26T21:42:07.342Z,7.20
2022-08-26T21:47:09.990Z,13.23
2022-08-26T21:52:13.457Z,5.07
2022-08-26T21:57:18.293Z,8.00
2022-08-26T22:02:21.595Z,8.50
2022-08-26T22:07:24.391Z,9.30
2022-08-26T22:12:31.064Z,14.57
2022-08-26T22:17:41.069Z,7.20
2022-08-26T22:22:45.013Z,6.90
2022-08-26T22:27:49.083Z,8.03
2022-08-26T22:32:51.861Z,5.13
2022-08-26T22:37:54.597Z,7.63
2022-08-26T22:43:02.321Z,7.70
2022-08-26T22:48:05.711Z,9.73
2022-08-26T22:53:08.590Z,5.40
2022-08-26T22:58:14.401Z,9.03
2022-08-26T23:03:21.078Z,5.60
2022-08-26T23:08:26.697Z,10.80
2022-08-26T23:13:31.420Z,6.10
2022-08-26T23:18:34.221Z,9.00
2022-08-26T23:23:37.979Z,11.90
2022-08-26T23:28:42.298Z,8.67
2022-08-26T23:34:02.903Z,13.40
2022-08-26T23:39:06.915Z,5.53
2022-08-26T23:44:11.526Z,6.33
2022-08-26T23:49:14.405Z,6.03
2022-08-26T23:54:17.302Z,9.57
2022-08-26T23:59:21.657Z,14.53
